Time;durP1;ratioP1;P1;durP2;ratioP2;P2;SDS_P1;SDS_P2;PMS_P1;PMS_P2;Temp;Humidity;BMP_temperature;BMP_pressure;BME280_temperature;BME280_humidity;BME280_pressure;Samples;Min_cycle;Max_cycle;Signal;HPM_P1;HPM_P2
2023/06/07 00:02:17;;;;;;;11.85;11.05;;;;;;;;;;5099214;28;20242;-60
2023/06/07 00:04:46;;;;;;;13.20;12.27;;;;;;;;;;5099069;28;20208;-60
2023/06/07 00:07:13;;;;;;;13.00;12.10;;;;;;;;;;5099615;28;20211;-60
2023/06/07 00:09:41;;;;;;;12.65;11.75;;;;;;;;;;5099667;28;20226;-60
2023/06/07 00:12:09;;;;;;;12.68;11.75;;;;;;;;;;5098713;28;20204;-60
2023/06/07 00:14:36;;;;;;;12.82;11.93;;;;;;;;;;5099500;28;20203;-60
2023/06/07 00:17:08;;;;;;;11.50;10.60;;;;;;;;;;5099223;28;20207;-60
2023/06/07 00:19:36;;;;;;;11.77;10.88;;;;;;;;;;5098791;28;20223;-60
2023/06/07 00:22:04;;;;;;;11.82;11.02;;;;;;;;;;5099683;28;20212;-60
2023/06/07 00:24:32;;;;;;;11.90;11.10;;;;;;;;;;5099271;28;20234;-60
2023/06/07 00:26:59;;;;;;;12.40;11.55;;;;;;;;;;5099110;28;20215;-60
2023/06/07 00:29:27;;;;;;;12.20;11.30;;;;;;;;;;5098913;28;20211;-60
2023/06/07 00:31:55;;;;;;;12.52;11.63;;;;;;;;;;5098880;28;20269;-60
2023/06/07 00:34:24;;;;;;;12.60;11.70;;;;;;;;;;5099006;28;20210;-60
2023/06/07 00:36:51;;;;;;;11.88;11.07;;;;;;;;;;5098461;28;20203;-60
2023/06/07 00:39:19;;;;;;;12.45;11.45;;;;;;;;;;5099070;28;20245;-60
2023/06/07 00:41:46;;;;;;;12.05;11.18;;;;;;;;;;5098662;28;20211;-60
2023/06/07 00:44:13;;;;;;;12.10;11.20;;;;;;;;;;5098925;28;20207;-60
2023/06/07 00:46:41;;;;;;;12.70;11.80;;;;;;;;;;5098781;28;20212;-60
2023/06/07 00:49:10;;;;;;;12.73;11.80;;;;;;;;;;5098707;28;20264;-60
2023/06/07 00:51:39;;;;;;;12.07;11.18;;;;;;;;;;5098777;28;20282;-60
2023/06/07 00:54:07;;;;;;;12.52;11.65;;;;;;;;;;5098946;28;20212;-60
2023/06/07 00:56:35;;;;;;;12.02;11.15;;;;;;;;;;5098713;28;20564;-60
2023/06/07 00:59:03;;;;;;;11.38;10.57;;;;;;;;;;5098396;28;20249;-60
2023/06/07 01:01:33;;;;;;;12.45;11.55;;;;;;;;;;5098272;28;20257;-60
2023/06/07 01:04:01;;;;;;;11.57;10.77;;;;;;;;;;5098578;28;20610;-60
2023/06/07 01:06:29;;;;;;;11.80;11.00;;;;;;;;;;5098385;28;20299;-60
2023/06/07 01:08:58;;;;;;;11.32;10.52;;;;;;;;;;5098907;28;20306;-60
2023/06/07 01:11:27;;;;;;;11.60;10.70;;;;;;;;;;5098118;28;20580;-60
2023/06/07 01:13:55;;;;;;;12.15;11.25;;;;;;;;;;5097989;28;20204;-61
2023/06/07 01:16:22;;;;;;;12.50;11.57;;;;;;;;;;5089677;28;20269;-62
2023/06/07 01:18:50;;;;;;;12.48;11.57;;;;;;;;;;5098282;28;20648;-62
2023/06/07 01:21:19;;;;;;;11.02;10.20;;;;;;;;;;5098157;28;20231;-62
2023/06/07 01:23:49;;;;;;;11.60;10.80;;;;;;;;;;5098229;28;20203;-62
2023/06/07 01:26:18;;;;;;;12.13;11.23;;;;;;;;;;5097901;28;20210;-62
2023/06/07 01:28:47;;;;;;;10.93;10.10;;;;;;;;;;5098059;28;20223;-62
2023/06/07 01:31:15;;;;;;;12.05;11.05;;;;;;;;;;5098118;28;20203;-62
2023/06/07 01:33:43;;;;;;;12.63;11.70;;;;;;;;;;5098068;28;20260;-62
2023/06/07 01:36:12;;;;;;;12.65;11.65;;;;;;;;;;5097997;28;20213;-62
2023/06/07 01:38:40;;;;;;;12.48;11.57;;;;;;;;;;5098186;28;20568;-62
2023/06/07 01:41:11;;;;;;;13.13;12.02;;;;;;;;;;5097483;28;20227;-62
2023/06/07 01:43:39;;;;;;;12.43;11.52;;;;;;;;;;5097593;28;20256;-62
2023/06/07 01:46:07;;;;;;;12.15;11.25;;;;;;;;;;5097589;28;20211;-62
2023/06/07 01:48:34;;;;;;;12.98;12.05;;;;;;;;;;5096749;28;20208;-62
2023/06/07 01:51:01;;;;;;;12.65;11.65;;;;;;;;;;5096872;28;20218;-62
2023/06/07 01:53:30;;;;;;;11.93;11.00;;;;;;;;;;5096898;28;20265;-62
2023/06/07 01:56:15;;;;;;;11.90;10.95;;;;;;;;;;5097413;28;20235;-62
2023/06/07 01:58:48;;;;;;;12.98;11.98;;;;;;;;;;5097319;28;20211;-62
2023/06/07 02:01:18;;;;;;;12.73;11.82;;;;;;;;;;5096980;28;20611;-62
2023/06/07 02:03:48;;;;;;;12.05;11.15;;;;;;;;;;5097205;28;20590;-62
2023/06/07 02:06:18;;;;;;;13.55;12.55;;;;;;;;;;5097384;28;20310;-62
2023/06/07 02:08:48;;;;;;;11.80;10.90;;;;;;;;;;5096971;28;20243;-62
2023/06/07 02:11:17;;;;;;;12.32;11.27;;;;;;;;;;5097322;28;20238;-62
2023/06/07 02:13:46;;;;;;;13.23;12.13;;;;;;;;;;5097303;28;20272;-62
2023/06/07 02:16:14;;;;;;;13.82;12.73;;;;;;;;;;5097657;28;20204;-62
2023/06/07 02:18:41;;;;;;;12.98;12.07;;;;;;;;;;5097578;28;20239;-62
2023/06/07 02:21:09;;;;;;;13.68;12.57;;;;;;;;;;5097240;28;20223;-62
2023/06/07 02:23:37;;;;;;;13.25;12.25;;;;;;;;;;5097206;28;20310;-62
2023/06/07 02:26:05;;;;;;;14.15;13.02;;;;;;;;;;5097174;28;20207;-62
2023/06/07 02:28:33;;;;;;;13.23;12.13;;;;;;;;;;5096712;28;20587;-62
2023/06/07 02:31:02;;;;;;;13.50;12.50;;;;;;;;;;5097766;28;20527;-62
2023/06/07 02:33:30;;;;;;;13.23;12.13;;;;;;;;;;5097353;28;20212;-62
2023/06/07 02:35:58;;;;;;;12.57;11.57;;;;;;;;;;5097132;28;20595;-62
2023/06/07 02:38:25;;;;;;;14.52;13.32;;;;;;;;;;5096990;28;20212;-62
2023/06/07 02:40:55;;;;;;;14.60;13.40;;;;;;;;;;5096807;28;20223;-62
2023/06/07 02:43:22;;;;;;;13.85;12.65;;;;;;;;;;5097005;28;20294;-62
2023/06/07 02:45:50;;;;;;;13.60;12.43;;;;;;;;;;5097025;28;20204;-62
2023/06/07 02:48:19;;;;;;;13.93;12.85;;;;;;;;;;5096910;28;20204;-62
2023/06/07 02:50:47;;;;;;;13.65;12.60;;;;;;;;;;5096908;28;20203;-62
2023/06/07 02:53:15;;;;;;;13.27;12.23;;;;;;;;;;5097001;28;20641;-62
2023/06/07 02:55:42;;;;;;;14.20;13.02;;;;;;;;;;5096886;28;20211;-62
2023/06/07 02:58:09;;;;;;;14.20;13.00;;;;;;;;;;5097213;28;20679;-62
2023/06/07 03:00:37;;;;;;;13.50;12.40;;;;;;;;;;5100566;28;20273;-62
2023/06/07 03:03:06;;;;;;;13.25;12.23;;;;;;;;;;5100155;28;20525;-62
2023/06/07 03:05:35;;;;;;;13.38;12.27;;;;;;;;;;5100246;28;20204;-62
2023/06/07 03:08:05;;;;;;;13.73;12.52;;;;;;;;;;5100822;28;20227;-62
2023/06/07 03:10:32;;;;;;;13.23;12.13;;;;;;;;;;5100231;28;20199;-62
2023/06/07 03:13:00;;;;;;;13.32;12.23;;;;;;;;;;5099912;28;20211;-62
2023/06/07 03:15:28;;;;;;;13.88;12.77;;;;;;;;;;5100440;28;20234;-62
2023/06/07 03:17:56;;;;;;;13.80;12.70;;;;;;;;;;5100488;28;20212;-62
2023/06/07 03:20:23;;;;;;;14.75;13.55;;;;;;;;;;5099973;28;20638;-62
2023/06/07 03:22:52;;;;;;;14.85;13.55;;;;;;;;;;5099766;28;20204;-62
2023/06/07 03:25:20;;;;;;;14.13;13.00;;;;;;;;;;5099999;28;20203;-62
2023/06/07 03:27:48;;;;;;;14.43;13.20;;;;;;;;;;5099710;28;20203;-62
2023/06/07 03:30:15;;;;;;;14.02;12.90;;;;;;;;;;5099998;28;20203;-62
2023/06/07 03:32:44;;;;;;;14.18;13.05;;;;;;;;;;5099692;28;20269;-62
2023/06/07 03:35:11;;;;;;;14.18;12.90;;;;;;;;;;5099839;28;20249;-62
2023/06/07 03:37:39;;;;;;;13.98;12.77;;;;;;;;;;5099739;28;20204;-62
2023/06/07 03:40:09;;;;;;;15.00;13.70;;;;;;;;;;5099003;28;20215;-62
2023/06/07 03:42:37;;;;;;;14.77;13.57;;;;;;;;;;5099474;28;20223;-62
2023/06/07 03:45:05;;;;;;;13.95;12.85;;;;;;;;;;5099481;28;20547;-62
2023/06/07 03:47:33;;;;;;;14.45;13.25;;;;;;;;;;5099863;28;20466;-62
2023/06/07 03:50:01;;;;;;;13.90;12.80;;;;;;;;;;5099648;28;20265;-62
2023/06/07 03:52:28;;;;;;;14.20;12.90;;;;;;;;;;5099529;28;20204;-62
2023/06/07 03:54:56;;;;;;;14.18;13.02;;;;;;;;;;5098999;28;20204;-62
2023/06/07 03:57:25;;;;;;;14.45;13.18;;;;;;;;;;5099344;28;20212;-62
2023/06/07 03:59:52;;;;;;;13.95;12.77;;;;;;;;;;5099426;28;20243;-62
2023/06/07 04:02:20;;;;;;;14.52;13.32;;;;;;;;;;5090390;28;20301;-62
2023/06/07 04:04:48;;;;;;;14.70;13.32;;;;;;;;;;5098566;28;20256;-62
2023/06/07 04:07:16;;;;;;;15.50;14.15;;;;;;;;;;5098860;28;20211;-62
2023/06/07 04:09:43;;;;;;;16.33;14.82;;;;;;;;;;5098156;28;20563;-62
2023/06/07 04:12:11;;;;;;;16.55;15.05;;;;;;;;;;5098976;28;20192;-62
2023/06/07 04:14:40;;;;;;;16.20;14.73;;;;;;;;;;5098437;28;20200;-62
2023/06/07 04:17:08;;;;;;;15.05;13.75;;;;;;;;;;5099027;28;20211;-62
2023/06/07 04:19:35;;;;;;;15.43;14.13;;;;;;;;;;5098549;28;20207;-62
2023/06/07 04:22:04;;;;;;;14.60;13.40;;;;;;;;;;5098700;28;20570;-62
2023/06/07 04:24:32;;;;;;;16.42;14.93;;;;;;;;;;5095818;28;20203;-62
2023/06/07 04:27:01;;;;;;;15.25;13.95;;;;;;;;;;5098425;28;20606;-62
2023/06/07 04:29:28;;;;;;;15.55;14.15;;;;;;;;;;5098359;28;20212;-62
2023/06/07 04:31:58;;;;;;;14.57;13.30;;;;;;;;;;5097664;28;20234;-63
2023/06/07 04:34:26;;;;;;;14.15;12.95;;;;;;;;;;5097044;28;20204;-62
2023/06/07 04:36:55;;;;;;;14.35;13.15;;;;;;;;;;5097641;28;20465;-62
2023/06/07 04:39:23;;;;;;;15.13;13.82;;;;;;;;;;5089667;28;20521;-62
2023/06/07 04:41:52;;;;;;;15.15;13.80;;;;;;;;;;5097748;28;20657;-62
2023/06/07 04:44:27;;;;;;;14.88;13.55;;;;;;;;;;5097652;28;20255;-62
2023/06/07 04:46:57;;;;;;;14.85;13.55;;;;;;;;;;5097260;28;20199;-62
2023/06/07 04:49:25;;;;;;;14.95;13.55;;;;;;;;;;5097973;28;20210;-62
2023/06/07 04:51:53;;;;;;;15.05;13.73;;;;;;;;;;5096971;28;20219;-62
2023/06/07 04:54:21;;;;;;;14.93;13.63;;;;;;;;;;5096353;28;20211;-62
2023/06/07 04:56:48;;;;;;;14.55;13.25;;;;;;;;;;5096936;28;20762;-62
2023/06/07 04:59:18;;;;;;;16.40;14.70;;;;;;;;;;5096665;28;20212;-62
2023/06/07 05:01:46;;;;;;;15.40;13.88;;;;;;;;;;5096444;28;20292;-62
2023/06/07 05:04:16;;;;;;;15.02;13.73;;;;;;;;;;5095822;28;20265;-62
2023/06/07 05:06:44;;;;;;;15.20;13.70;;;;;;;;;;5096366;28;20214;-62
2023/06/07 05:09:12;;;;;;;14.80;13.43;;;;;;;;;;5096097;28;20203;-62
2023/06/07 05:11:40;;;;;;;15.95;14.55;;;;;;;;;;5096546;28;20196;-62
2023/06/07 05:14:07;;;;;;;16.27;14.77;;;;;;;;;;5095846;28;20214;-62
2023/06/07 05:16:35;;;;;;;15.60;14.30;;;;;;;;;;5095521;28;20239;-62
2023/06/07 05:19:03;;;;;;;16.25;14.85;;;;;;;;;;5094427;28;20207;-62
2023/06/07 05:21:35;;;;;;;14.45;13.15;;;;;;;;;;5094639;28;20223;-62
2023/06/07 05:24:02;;;;;;;15.38;14.02;;;;;;;;;;5095415;28;20212;-60
2023/06/07 05:26:30;;;;;;;15.32;13.93;;;;;;;;;;5094786;28;20203;-60
2023/06/07 05:28:57;;;;;;;14.90;13.60;;;;;;;;;;5095070;28;20199;-61
2023/06/07 05:31:26;;;;;;;15.80;14.50;;;;;;;;;;5094466;28;20234;-61
2023/06/07 05:33:53;;;;;;;14.82;13.35;;;;;;;;;;5094766;28;20551;-62
2023/06/07 05:36:21;;;;;;;15.48;14.18;;;;;;;;;;5094270;28;20539;-62
2023/06/07 05:38:50;;;;;;;15.23;13.82;;;;;;;;;;5094394;28;20245;-62
2023/06/07 05:41:18;;;;;;;13.57;12.45;;;;;;;;;;5093897;28;20246;-62
2023/06/07 05:43:46;;;;;;;14.38;13.07;;;;;;;;;;5094863;28;20207;-62
2023/06/07 05:46:13;;;;;;;15.77;14.18;;;;;;;;;;5095342;28;20509;-62
2023/06/07 05:48:41;;;;;;;15.98;14.50;;;;;;;;;;5094419;28;20513;-62
2023/06/07 05:51:10;;;;;;;16.65;15.15;;;;;;;;;;5094222;28;20195;-62
2023/06/07 05:53:37;;;;;;;18.65;16.42;;;;;;;;;;5094443;28;20261;-62
2023/06/07 05:56:09;;;;;;;19.15;17.23;;;;;;;;;;5094687;28;20211;-62
2023/06/07 05:58:37;;;;;;;17.98;16.27;;;;;;;;;;5095222;28;20239;-62
2023/06/07 06:01:07;;;;;;;18.08;16.38;;;;;;;;;;5095534;28;20227;-62
2023/06/07 06:03:35;;;;;;;18.23;16.33;;;;;;;;;;5093904;28;20291;-62
2023/06/07 06:06:12;;;;;;;19.48;17.58;;;;;;;;;;5095303;28;20211;-62
2023/06/07 06:08:40;;;;;;;18.15;16.27;;;;;;;;;;5095621;28;20462;-62
2023/06/07 06:11:10;;;;;;;18.25;16.58;;;;;;;;;;5095331;28;20548;-62
2023/06/07 06:13:38;;;;;;;16.88;15.27;;;;;;;;;;5095855;28;20215;-62
2023/06/07 06:16:06;;;;;;;16.23;14.63;;;;;;;;;;5094708;28;20301;-62
2023/06/07 06:18:33;;;;;;;17.52;15.88;;;;;;;;;;5094829;28;20204;-62
2023/06/07 06:21:01;;;;;;;16.52;14.93;;;;;;;;;;5095170;28;20203;-62
2023/06/07 06:23:28;;;;;;;15.80;14.20;;;;;;;;;;5094555;28;20199;-62
2023/06/07 06:25:56;;;;;;;15.95;14.35;;;;;;;;;;5094740;28;20269;-62
2023/06/07 06:28:25;;;;;;;15.48;14.07;;;;;;;;;;5095372;28;20579;-62
2023/06/07 06:30:53;;;;;;;14.82;13.52;;;;;;;;;;5095235;28;20243;-62
2023/06/07 06:33:20;;;;;;;14.73;13.38;;;;;;;;;;5087737;28;20235;-62
2023/06/07 06:35:48;;;;;;;14.27;13.07;;;;;;;;;;5099334;28;20297;-62
2023/06/07 06:38:15;;;;;;;14.48;13.18;;;;;;;;;;5099568;28;20200;-62
2023/06/07 06:40:44;;;;;;;13.85;12.65;;;;;;;;;;5099934;28;20626;-62
2023/06/07 06:43:12;;;;;;;13.90;12.73;;;;;;;;;;5098255;28;20568;-62
2023/06/07 06:45:41;;;;;;;14.38;13.18;;;;;;;;;;5099080;28;20243;-63
2023/06/07 06:48:09;;;;;;;13.60;12.43;;;;;;;;;;5098657;28;20204;-63
2023/06/07 06:50:36;;;;;;;13.57;12.45;;;;;;;;;;5098920;28;20212;-63
2023/06/07 06:53:04;;;;;;;13.23;12.05;;;;;;;;;;5099197;28;20261;-63
2023/06/07 06:55:32;;;;;;;13.07;11.98;;;;;;;;;;5098840;28;20233;-63
2023/06/07 06:57:59;;;;;;;12.65;11.55;;;;;;;;;;5098112;28;20557;-63
2023/06/07 07:00:27;;;;;;;12.70;11.50;;;;;;;;;;5099106;28;20208;-63
2023/06/07 07:02:56;;;;;;;12.63;11.63;;;;;;;;;;5097796;28;20238;-63
2023/06/07 07:05:23;;;;;;;11.90;10.90;;;;;;;;;;5098430;28;20214;-63
2023/06/07 07:07:51;;;;;;;11.45;10.50;;;;;;;;;;5098381;28;20210;-63
2023/06/07 07:10:19;;;;;;;11.90;10.90;;;;;;;;;;5098269;28;20203;-63
2023/06/07 07:12:47;;;;;;;11.88;10.88;;;;;;;;;;5098759;28;20294;-63
2023/06/07 07:15:14;;;;;;;11.60;10.60;;;;;;;;;;5098321;28;20587;-63
2023/06/07 07:17:47;;;;;;;11.45;10.45;;;;;;;;;;5097579;28;20607;-63
2023/06/07 07:20:16;;;;;;;11.73;10.73;;;;;;;;;;5098927;28;20250;-63
2023/06/07 07:22:46;;;;;;;11.43;10.50;;;;;;;;;;5098443;28;20503;-63
2023/06/07 07:25:14;;;;;;;10.90;10.00;;;;;;;;;;5098196;28;20268;-63
2023/06/07 07:27:41;;;;;;;12.00;11.00;;;;;;;;;;5098195;28;20551;-63
2023/06/07 07:30:09;;;;;;;10.88;10.07;;;;;;;;;;5097994;28;20261;-63
2023/06/07 07:32:37;;;;;;;10.55;9.70;;;;;;;;;;5097476;28;20568;-63
2023/06/07 07:35:05;;;;;;;10.73;9.88;;;;;;;;;;5097749;28;20546;-62
2023/06/07 07:37:35;;;;;;;11.35;10.35;;;;;;;;;;5097380;28;20566;-62
2023/06/07 07:40:03;;;;;;;11.27;10.43;;;;;;;;;;5097780;28;20200;-62
2023/06/07 07:42:31;;;;;;;10.85;10.05;;;;;;;;;;5097876;28;20734;-62
2023/06/07 07:44:58;;;;;;;11.05;10.15;;;;;;;;;;5097152;28;20235;-62
2023/06/07 07:47:26;;;;;;;11.10;10.23;;;;;;;;;;5097664;28;20203;-62
2023/06/07 07:49:55;;;;;;;11.20;10.30;;;;;;;;;;5097561;28;20715;-62
2023/06/07 07:52:22;;;;;;;10.40;9.55;;;;;;;;;;5097798;28;20203;-62
2023/06/07 07:54:51;;;;;;;10.75;9.85;;;;;;;;;;5098418;28;20214;-62
2023/06/07 07:57:19;;;;;;;11.35;10.25;;;;;;;;;;5097220;28;20591;-62
2023/06/07 07:59:46;;;;;;;11.65;10.75;;;;;;;;;;5097526;28;20211;-62
2023/06/07 08:02:14;;;;;;;11.68;10.85;;;;;;;;;;5097027;28;20334;-62
2023/06/07 08:04:41;;;;;;;12.32;11.32;;;;;;;;;;5097708;28;20203;-62
2023/06/07 08:07:09;;;;;;;11.93;10.82;;;;;;;;;;5097309;28;20235;-62
2023/06/07 08:09:37;;;;;;;10.90;10.10;;;;;;;;;;5097704;28;20294;-62
2023/06/07 08:12:07;;;;;;;11.90;10.90;;;;;;;;;;5097423;28;20497;-62
2023/06/07 08:14:34;;;;;;;11.70;10.80;;;;;;;;;;5097558;28;20287;-62
2023/06/07 08:17:02;;;;;;;10.80;10.00;;;;;;;;;;5097030;28;20264;-62
2023/06/07 08:19:29;;;;;;;11.27;10.38;;;;;;;;;;5097144;28;20292;-62
2023/06/07 08:21:57;;;;;;;11.95;10.95;;;;;;;;;;5096802;28;20666;-62
2023/06/07 08:24:24;;;;;;;11.63;10.70;;;;;;;;;;5096920;28;20256;-62
2023/06/07 08:26:52;;;;;;;11.63;10.73;;;;;;;;;;5097038;28;20204;-62
2023/06/07 08:29:21;;;;;;;11.23;10.32;;;;;;;;;;5097413;28;20286;-62
2023/06/07 08:31:49;;;;;;;11.20;10.40;;;;;;;;;;5096464;28;20572;-62
2023/06/07 08:34:16;;;;;;;11.65;10.85;;;;;;;;;;5097184;28;20216;-62
2023/06/07 08:36:44;;;;;;;12.27;11.27;;;;;;;;;;5097058;28;20599;-62
2023/06/07 08:39:11;;;;;;;11.38;10.57;;;;;;;;;;5096685;28;20229;-62
2023/06/07 08:41:39;;;;;;;10.98;10.13;;;;;;;;;;5096568;28;20230;-62
2023/06/07 08:44:07;;;;;;;11.18;10.35;;;;;;;;;;5097036;28;20594;-62
2023/06/07 08:46:36;;;;;;;10.38;9.57;;;;;;;;;;5096560;28;20200;-62
2023/06/07 08:49:05;;;;;;;11.18;10.27;;;;;;;;;;5096476;28;20767;-62
2023/06/07 08:51:34;;;;;;;10.00;9.30;;;;;;;;;;5095575;28;20204;-62
2023/06/07 08:54:03;;;;;;;11.05;10.15;;;;;;;;;;5096054;28;20204;-62
2023/06/07 08:56:31;;;;;;;11.13;10.23;;;;;;;;;;5095474;28;20207;-62
2023/06/07 08:58:59;;;;;;;10.93;10.02;;;;;;;;;;5096293;28;20204;-62
2023/06/07 09:01:28;;;;;;;10.48;9.57;;;;;;;;;;5095098;28;20208;-62
2023/06/07 09:03:57;;;;;;;9.70;9.00;;;;;;;;;;5095970;28;20263;-62
2023/06/07 09:06:25;;;;;;;10.65;9.85;;;;;;;;;;5095881;28;20642;-62
2023/06/07 09:08:53;;;;;;;10.75;9.90;;;;;;;;;;5096007;28;20277;-62
2023/06/07 09:11:21;;;;;;;10.27;9.48;;;;;;;;;;5096007;28;20215;-62
2023/06/07 09:13:48;;;;;;;10.98;10.07;;;;;;;;;;5095671;28;20207;-62
2023/06/07 09:16:16;;;;;;;10.10;9.20;;;;;;;;;;5095502;28;20269;-62
2023/06/07 09:18:43;;;;;;;10.38;9.40;;;;;;;;;;5095312;28;20300;-62
2023/06/07 09:21:22;;;;;;;10.48;9.60;;;;;;;;;;5094534;28;20199;-62
2023/06/07 09:23:50;;;;;;;9.90;9.10;;;;;;;;;;5095896;28;20231;-62
2023/06/07 09:26:18;;;;;;;9.77;9.07;;;;;;;;;;5095549;28;20583;-62
2023/06/07 09:28:46;;;;;;;10.23;9.45;;;;;;;;;;5094791;28;20203;-62
2023/06/07 09:31:14;;;;;;;9.43;8.73;;;;;;;;;;5095458;28;20675;-62
2023/06/07 09:33:42;;;;;;;10.20;9.40;;;;;;;;;;5095519;28;20711;-62
2023/06/07 09:36:11;;;;;;;10.68;9.77;;;;;;;;;;5095097;28;20264;-62
2023/06/07 09:38:41;;;;;;;10.95;10.10;;;;;;;;;;5095590;28;20219;-62
2023/06/07 09:41:10;;;;;;;10.00;9.20;;;;;;;;;;5094925;28;20272;-62
2023/06/07 09:43:46;;;;;;;10.00;9.30;;;;;;;;;;5094933;28;20273;-62
2023/06/07 09:46:14;;;;;;;10.35;9.55;;;;;;;;;;5094556;28;20214;-62
2023/06/07 09:48:48;;;;;;;10.05;9.35;;;;;;;;;;5095196;28;20203;-62
2023/06/07 09:51:16;;;;;;;9.95;9.15;;;;;;;;;;5095097;28;20207;-62
2023/06/07 09:53:55;;;;;;;9.65;8.85;;;;;;;;;;5095289;28;20207;-62
2023/06/07 09:56:23;;;;;;;9.50;8.70;;;;;;;;;;5094829;28;20211;-62
2023/06/07 09:58:51;;;;;;;9.40;8.70;;;;;;;;;;5094371;28;20594;-63
2023/06/07 10:01:35;;;;;;;9.70;9.00;;;;;;;;;;5093998;28;20203;-63
2023/06/07 10:04:03;;;;;;;9.98;9.18;;;;;;;;;;5094268;28;20228;-63
2023/06/07 10:06:33;;;;;;;9.48;8.77;;;;;;;;;;5094483;28;20208;-63
2023/06/07 10:09:04;;;;;;;9.85;9.05;;;;;;;;;;5093786;28;20234;-63
2023/06/07 10:11:32;;;;;;;9.48;8.73;;;;;;;;;;5094574;28;20209;-63
2023/06/07 10:14:02;;;;;;;9.70;8.90;;;;;;;;;;5094740;28;20591;-63
2023/06/07 10:16:30;;;;;;;8.88;8.18;;;;;;;;;;5094849;28;20239;-63
2023/06/07 10:19:00;;;;;;;9.27;8.57;;;;;;;;;;5093789;28;20227;-63
2023/06/07 10:21:29;;;;;;;9.50;8.70;;;;;;;;;;5093782;28;20577;-63
2023/06/07 10:23:58;;;;;;;9.40;8.70;;;;;;;;;;5093877;28;20288;-63
2023/06/07 10:26:31;;;;;;;8.82;8.13;;;;;;;;;;5094400;28;20195;-63
2023/06/07 10:29:00;;;;;;;9.18;8.48;;;;;;;;;;5093860;28;20302;-63
2023/06/07 10:31:29;;;;;;;9.85;9.10;;;;;;;;;;5094135;28;20212;-63
2023/06/07 10:33:57;;;;;;;9.20;8.38;;;;;;;;;;5093481;28;20207;-63
2023/06/07 10:36:25;;;;;;;9.38;8.63;;;;;;;;;;5094615;28;20212;-63
2023/06/07 10:38:56;;;;;;;9.68;8.80;;;;;;;;;;5093297;28;20204;-63
2023/06/07 10:41:24;;;;;;;8.85;8.15;;;;;;;;;;5092963;28;20211;-62
2023/06/07 10:43:52;;;;;;;8.65;8.05;;;;;;;;;;5093812;28;20282;-62
2023/06/07 10:46:24;;;;;;;8.13;7.53;;;;;;;;;;5093742;28;20409;-62
2023/06/07 10:48:52;;;;;;;9.73;9.02;;;;;;;;;;5093760;28;20292;-62
2023/06/07 10:51:20;;;;;;;9.18;8.40;;;;;;;;;;5093538;28;20211;-62
2023/06/07 10:53:54;;;;;;;9.60;8.80;;;;;;;;;;5093400;28;20606;-62
2023/06/07 10:56:28;;;;;;;9.23;8.50;;;;;;;;;;5093271;28;20219;-62
2023/06/07 10:58:57;;;;;;;9.93;9.13;;;;;;;;;;5094608;28;20571;-60
2023/06/07 11:01:25;;;;;;;9.00;8.30;;;;;;;;;;5093338;28;20695;-60
2023/06/07 11:03:53;;;;;;;8.95;8.25;;;;;;;;;;5093316;28;20227;-60
2023/06/07 11:06:20;;;;;;;8.80;8.10;;;;;;;;;;5084986;28;20203;-60
2023/06/07 11:08:49;;;;;;;9.05;8.35;;;;;;;;;;5092023;28;20269;-60
2023/06/07 11:11:41;;;;;;;8.52;7.90;;;;;;;;;;5093363;28;20655;-60
2023/06/07 11:14:13;;;;;;;8.77;8.15;;;;;;;;;;5069122;28;20207;-60
2023/06/07 11:16:41;;;;;;;9.52;8.82;;;;;;;;;;5092934;28;20215;-60
2023/06/07 11:19:11;;;;;;;9.10;8.40;;;;;;;;;;5092798;28;20196;-60
2023/06/07 11:21:57;;;;;;;8.70;7.90;;;;;;;;;;5097407;28;20214;-60
2023/06/07 11:24:25;;;;;;;8.95;8.25;;;;;;;;;;5097031;28;20587;-60
2023/06/07 11:26:52;;;;;;;9.13;8.45;;;;;;;;;;5096912;28;20207;-62
2023/06/07 11:29:22;;;;;;;8.98;8.38;;;;;;;;;;5097086;28;20310;-62
2023/06/07 11:31:50;;;;;;;9.02;8.32;;;;;;;;;;5097459;28;20204;-62
2023/06/07 11:34:18;;;;;;;9.05;8.35;;;;;;;;;;5097157;28;20211;-62
2023/06/07 11:36:45;;;;;;;8.90;8.20;;;;;;;;;;5096668;28;20212;-62
2023/06/07 11:39:16;;;;;;;9.00;8.30;;;;;;;;;;5096715;28;20206;-62
2023/06/07 11:41:44;;;;;;;8.98;8.25;;;;;;;;;;5095994;28;20195;-62
2023/06/07 11:44:12;;;;;;;9.35;8.73;;;;;;;;;;5097381;28;20228;-62
2023/06/07 11:46:41;;;;;;;9.23;8.60;;;;;;;;;;5096291;28;20203;-62
2023/06/07 11:49:09;;;;;;;9.02;8.32;;;;;;;;;;5096403;28;20204;-62
2023/06/07 11:51:36;;;;;;;9.25;8.52;;;;;;;;;;5096286;28;20214;-62
2023/06/07 11:54:05;;;;;;;9.15;8.25;;;;;;;;;;5096362;28;20203;-62
2023/06/07 11:56:36;;;;;;;8.43;7.82;;;;;;;;;;5096411;28;20574;-62
2023/06/07 11:59:04;;;;;;;8.68;8.07;;;;;;;;;;5096148;28;20294;-62
2023/06/07 12:01:33;;;;;;;8.38;7.80;;;;;;;;;;5095802;28;20483;-62
2023/06/07 12:04:02;;;;;;;8.55;7.95;;;;;;;;;;5096145;28;20710;-62
2023/06/07 12:06:29;;;;;;;8.27;7.68;;;;;;;;;;5096494;28;20203;-62
2023/06/07 12:08:57;;;;;;;8.05;7.40;;;;;;;;;;5096260;28;20298;-62
2023/06/07 12:11:26;;;;;;;8.00;7.50;;;;;;;;;;5096496;28;20298;-63
2023/06/07 12:13:54;;;;;;;8.40;7.70;;;;;;;;;;5096529;28;20294;-63
2023/06/07 12:16:22;;;;;;;8.02;7.45;;;;;;;;;;5095800;28;20235;-63
2023/06/07 12:18:50;;;;;;;8.45;7.85;;;;;;;;;;5095045;28;20204;-63
2023/06/07 12:21:19;;;;;;;8.38;7.78;;;;;;;;;;5095243;28;20290;-63
2023/06/07 12:23:48;;;;;;;8.05;7.45;;;;;;;;;;5094761;28;20708;-63
2023/06/07 12:26:16;;;;;;;8.80;8.00;;;;;;;;;;5095413;28;20215;-63
2023/06/07 12:28:44;;;;;;;7.95;7.45;;;;;;;;;;5095812;28;20204;-63
2023/06/07 12:31:18;;;;;;;8.18;7.57;;;;;;;;;;5094161;28;20310;-63
2023/06/07 12:33:55;;;;;;;8.05;7.45;;;;;;;;;;5095202;28;20223;-63
2023/06/07 12:36:25;;;;;;;8.32;7.72;;;;;;;;;;5087204;28;20548;-63
2023/06/07 12:38:52;;;;;;;8.32;7.72;;;;;;;;;;5095491;28;20572;-63
2023/06/07 12:41:23;;;;;;;8.10;7.50;;;;;;;;;;5095809;28;20204;-63
2023/06/07 12:43:51;;;;;;;8.18;7.47;;;;;;;;;;5095297;28;20235;-63
2023/06/07 12:46:20;;;;;;;7.75;7.15;;;;;;;;;;5094480;28;20214;-63
2023/06/07 12:48:47;;;;;;;8.43;7.82;;;;;;;;;;5094059;28;20638;-63
2023/06/07 12:51:15;;;;;;;8.98;8.27;;;;;;;;;;5095021;28;20204;-63
2023/06/07 12:53:44;;;;;;;8.45;7.85;;;;;;;;;;5094982;28;20726;-63
2023/06/07 12:56:12;;;;;;;8.70;7.90;;;;;;;;;;5094873;28;20208;-62
2023/06/07 12:58:39;;;;;;;9.13;8.32;;;;;;;;;;5094973;28;20235;-62
2023/06/07 13:01:07;;;;;;;8.40;7.80;;;;;;;;;;5094370;28;20613;-62
2023/06/07 13:03:34;;;;;;;8.88;8.07;;;;;;;;;;5095257;28;20721;-62
2023/06/07 13:06:02;;;;;;;9.30;8.50;;;;;;;;;;5095452;28;20230;-62
2023/06/07 13:08:30;;;;;;;8.85;8.18;;;;;;;;;;5094959;28;20203;-62
2023/06/07 13:10:58;;;;;;;9.30;8.60;;;;;;;;;;5094904;28;20468;-62
2023/06/07 13:13:26;;;;;;;9.23;8.52;;;;;;;;;;5094997;28;20564;-62
2023/06/07 13:15:54;;;;;;;8.55;7.95;;;;;;;;;;5094454;28;20203;-62
2023/06/07 13:18:22;;;;;;;8.73;8.07;;;;;;;;;;5095260;28;20204;-62
2023/06/07 13:20:50;;;;;;;8.75;8.15;;;;;;;;;;5095163;28;20216;-63
2023/06/07 13:23:18;;;;;;;8.95;8.25;;;;;;;;;;5094643;28;20505;-63
2023/06/07 13:25:45;;;;;;;9.52;8.82;;;;;;;;;;5094063;28;20294;-63
2023/06/07 13:28:14;;;;;;;9.07;8.48;;;;;;;;;;5094554;28;20212;-63
2023/06/07 13:30:42;;;;;;;9.13;8.43;;;;;;;;;;5094721;28;20261;-63
2023/06/07 13:33:17;;;;;;;9.27;8.60;;;;;;;;;;5093095;28;20222;-63
2023/06/07 13:35:44;;;;;;;9.43;8.73;;;;;;;;;;5093828;28;20310;-63
2023/06/07 13:38:12;;;;;;;9.40;8.70;;;;;;;;;;5094893;28;20212;-63
2023/06/07 13:40:39;;;;;;;9.82;9.13;;;;;;;;;;5094040;28;20447;-63
2023/06/07 13:43:07;;;;;;;9.52;8.82;;;;;;;;;;5093318;28;20210;-63
2023/06/07 13:45:37;;;;;;;9.80;8.98;;;;;;;;;;5095077;28;20204;-63
2023/06/07 13:48:04;;;;;;;9.65;8.90;;;;;;;;;;5093979;28;20222;-63
2023/06/07 13:50:32;;;;;;;10.02;9.23;;;;;;;;;;5094180;28;20204;-63
2023/06/07 13:52:59;;;;;;;9.93;9.15;;;;;;;;;;5094320;28;20199;-63
2023/06/07 13:55:27;;;;;;;9.82;9.13;;;;;;;;;;5094152;28;20654;-63
2023/06/07 13:57:55;;;;;;;9.85;9.05;;;;;;;;;;5094008;28;20664;-63
2023/06/07 14:00:23;;;;;;;10.13;9.32;;;;;;;;;;5093080;28;20207;-63
2023/06/07 14:02:52;;;;;;;10.57;9.77;;;;;;;;;;5092747;28;20231;-63
2023/06/07 14:05:20;;;;;;;10.45;9.65;;;;;;;;;;5093880;28;20717;-63
2023/06/07 14:07:47;;;;;;;10.45;9.65;;;;;;;;;;5093992;28;20269;-62
2023/06/07 14:10:15;;;;;;;10.52;9.82;;;;;;;;;;5092983;28;20209;-62
2023/06/07 14:12:43;;;;;;;10.55;9.75;;;;;;;;;;5093238;28;20214;-62
2023/06/07 14:15:11;;;;;;;11.25;10.45;;;;;;;;;;5092401;28;20233;-62
2023/06/07 14:17:38;;;;;;;10.85;9.98;;;;;;;;;;5092959;28;20583;-62
2023/06/07 14:20:08;;;;;;;10.38;9.68;;;;;;;;;;5093000;28;20246;-62
2023/06/07 14:22:36;;;;;;;11.57;10.77;;;;;;;;;;5093443;28;20237;-62
2023/06/07 14:25:03;;;;;;;10.85;10.05;;;;;;;;;;5094304;28;20685;-62
2023/06/07 14:27:31;;;;;;;11.45;10.55;;;;;;;;;;5093584;28;20199;-62
2023/06/07 14:29:58;;;;;;;10.88;10.02;;;;;;;;;;5093332;28;20253;-62
2023/06/07 14:32:26;;;;;;;11.88;10.88;;;;;;;;;;5093609;28;20268;-62
2023/06/07 14:34:53;;;;;;;11.55;10.68;;;;;;;;;;5093137;28;20207;-62